sensor_id;sensor_type;location;lat;lon;timestamp;temperature;humidity
36450;DHT22;22475;51.390;7.180;2023-02-17T00:00:06;12.10;91.30
36450;DHT22;22475;51.390;7.180;2023-02-17T00:02:33;12.00;91.30
36450;DHT22;22475;51.390;7.180;2023-02-17T00:05:01;12.10;91.30
36450;DHT22;22475;51.390;7.180;2023-02-17T00:07:30;12.10;91.30
36450;DHT22;22475;51.390;7.180;2023-02-17T00:09:57;12.10;91.30
36450;DHT22;22475;51.390;7.180;2023-02-17T00:12:24;12.10;91.30
36450;DHT22;22475;51.390;7.180;2023-02-17T00:14:51;12.10;91.30
36450;DHT22;22475;51.390;7.180;2023-02-17T00:17:17;12.10;91.30
36450;DHT22;22475;51.390;7.180;2023-02-17T00:19:44;12.10;91.30
36450;DHT22;22475;51.390;7.180;2023-02-17T00:22:12;12.10;91.30
36450;DHT22;22475;51.390;7.180;2023-02-17T00:24:39;12.10;91.30
36450;DHT22;22475;51.390;7.180;2023-02-17T00:27:06;12.10;91.30
36450;DHT22;22475;51.390;7.180;2023-02-17T00:29:33;12.10;91.30
36450;DHT22;22475;51.390;7.180;2023-02-17T00:32:00;12.10;91.40
36450;DHT22;22475;51.390;7.180;2023-02-17T00:34:26;12.10;91.40
36450;DHT22;22475;51.390;7.180;2023-02-17T00:36:53;12.10;91.40
36450;DHT22;22475;51.390;7.180;2023-02-17T00:39:21;12.10;91.40
36450;DHT22;22475;51.390;7.180;2023-02-17T00:41:49;12.10;91.40
36450;DHT22;22475;51.390;7.180;2023-02-17T00:44:16;12.00;91.40
36450;DHT22;22475;51.390;7.180;2023-02-17T00:46:44;12.10;91.40
36450;DHT22;22475;51.390;7.180;2023-02-17T00:49:14;12.10;91.40
36450;DHT22;22475;51.390;7.180;2023-02-17T00:51:42;12.10;91.40
36450;DHT22;22475;51.390;7.180;2023-02-17T00:54:09;12.10;91.40
36450;DHT22;22475;51.390;7.180;2023-02-17T00:56:37;12.10;91.40
36450;DHT22;22475;51.390;7.180;2023-02-17T00:59:04;12.10;91.40
36450;DHT22;22475;51.390;7.180;2023-02-17T01:01:32;12.10;91.40
36450;DHT22;22475;51.390;7.180;2023-02-17T01:03:59;12.10;91.40
36450;DHT22;22475;51.390;7.180;2023-02-17T01:06:28;12.10;91.50
36450;DHT22;22475;51.390;7.180;2023-02-17T01:08:55;12.10;91.40
36450;DHT22;22475;51.390;7.180;2023-02-17T01:11:24;12.10;91.50
36450;DHT22;22475;51.390;7.180;2023-02-17T01:13:53;12.10;91.50
36450;DHT22;22475;51.390;7.180;2023-02-17T01:16:22;12.10;91.50
36450;DHT22;22475;51.390;7.180;2023-02-17T01:18:49;12.10;91.50
36450;DHT22;22475;51.390;7.180;2023-02-17T01:21:17;12.10;91.50
36450;DHT22;22475;51.390;7.180;2023-02-17T01:23:44;12.10;91.50
36450;DHT22;22475;51.390;7.180;2023-02-17T01:26:13;12.10;91.50
36450;DHT22;22475;51.390;7.180;2023-02-17T01:28:40;12.10;91.50
36450;DHT22;22475;51.390;7.180;2023-02-17T01:31:09;12.10;91.50
36450;DHT22;22475;51.390;7.180;2023-02-17T01:33:37;12.10;91.50
36450;DHT22;22475;51.390;7.180;2023-02-17T01:36:05;12.10;91.50
36450;DHT22;22475;51.390;7.180;2023-02-17T01:38:33;12.10;91.50
36450;DHT22;22475;51.390;7.180;2023-02-17T01:41:00;12.10;91.50
36450;DHT22;22475;51.390;7.180;2023-02-17T01:43:27;12.10;91.50
36450;DHT22;22475;51.390;7.180;2023-02-17T01:45:55;12.10;91.50
36450;DHT22;22475;51.390;7.180;2023-02-17T01:48:25;12.10;91.50
36450;DHT22;22475;51.390;7.180;2023-02-17T01:50:58;12.10;91.50
36450;DHT22;22475;51.390;7.180;2023-02-17T01:53:30;12.10;91.50
36450;DHT22;22475;51.390;7.180;2023-02-17T01:55:58;12.20;91.60
36450;DHT22;22475;51.390;7.180;2023-02-17T01:58:26;12.10;91.60
36450;DHT22;22475;51.390;7.180;2023-02-17T02:00:55;12.10;91.50
36450;DHT22;22475;51.390;7.180;2023-02-17T02:03:27;12.10;91.50
36450;DHT22;22475;51.390;7.180;2023-02-17T02:05:56;12.10;91.60
36450;DHT22;22475;51.390;7.180;2023-02-17T02:08:23;12.10;91.60
36450;DHT22;22475;51.390;7.180;2023-02-17T02:10:50;12.10;91.60
36450;DHT22;22475;51.390;7.180;2023-02-17T02:13:17;12.10;91.60
36450;DHT22;22475;51.390;7.180;2023-02-17T02:15:48;12.10;91.50
36450;DHT22;22475;51.390;7.180;2023-02-17T02:18:37;12.10;91.60
36450;DHT22;22475;51.390;7.180;2023-02-17T02:24:15;12.10;91.60
36450;DHT22;22475;51.390;7.180;2023-02-17T02:27:18;12.10;91.60
36450;DHT22;22475;51.390;7.180;2023-02-17T02:33:08;12.10;91.60
36450;DHT22;22475;51.390;7.180;2023-02-17T02:35:43;12.10;91.60
36450;DHT22;22475;51.390;7.180;2023-02-17T02:38:15;12.20;91.60
36450;DHT22;22475;51.390;7.180;2023-02-17T02:40:45;12.10;91.60
36450;DHT22;22475;51.390;7.180;2023-02-17T02:43:13;12.10;91.60
36450;DHT22;22475;51.390;7.180;2023-02-17T02:45:41;12.10;91.60
36450;DHT22;22475;51.390;7.180;2023-02-17T02:48:10;12.10;91.60
36450;DHT22;22475;51.390;7.180;2023-02-17T02:51:00;12.10;91.60
36450;DHT22;22475;51.390;7.180;2023-02-17T02:53:49;12.10;91.70
36450;DHT22;22475;51.390;7.180;2023-02-17T02:56:27;12.10;91.70
36450;DHT22;22475;51.390;7.180;2023-02-17T02:59:03;12.10;91.70
36450;DHT22;22475;51.390;7.180;2023-02-17T03:01:37;12.10;91.70
36450;DHT22;22475;51.390;7.180;2023-02-17T03:04:10;12.10;91.70
36450;DHT22;22475;51.390;7.180;2023-02-17T03:06:44;12.10;91.70
36450;DHT22;22475;51.390;7.180;2023-02-17T03:09:15;12.10;91.70
36450;DHT22;22475;51.390;7.180;2023-02-17T03:11:43;12.20;91.80
36450;DHT22;22475;51.390;7.180;2023-02-17T03:14:13;12.10;91.70
36450;DHT22;22475;51.390;7.180;2023-02-17T03:16:41;12.20;91.80
36450;DHT22;22475;51.390;7.180;2023-02-17T03:19:11;12.10;91.80
36450;DHT22;22475;51.390;7.180;2023-02-17T03:21:40;12.10;91.80
36450;DHT22;22475;51.390;7.180;2023-02-17T03:24:08;12.20;91.80
36450;DHT22;22475;51.390;7.180;2023-02-17T03:26:34;12.20;91.80
36450;DHT22;22475;51.390;7.180;2023-02-17T03:29:01;12.20;91.80
36450;DHT22;22475;51.390;7.180;2023-02-17T03:31:28;12.10;91.80
36450;DHT22;22475;51.390;7.180;2023-02-17T03:33:55;12.10;91.90
36450;DHT22;22475;51.390;7.180;2023-02-17T03:36:23;12.20;91.90
36450;DHT22;22475;51.390;7.180;2023-02-17T03:38:50;12.20;91.90
36450;DHT22;22475;51.390;7.180;2023-02-17T03:41:17;12.20;91.90
36450;DHT22;22475;51.390;7.180;2023-02-17T03:43:44;12.10;91.90
36450;DHT22;22475;51.390;7.180;2023-02-17T03:46:11;12.20;91.90
36450;DHT22;22475;51.390;7.180;2023-02-17T03:48:38;12.20;91.90
36450;DHT22;22475;51.390;7.180;2023-02-17T03:51:12;12.20;91.90
36450;DHT22;22475;51.390;7.180;2023-02-17T03:53:42;12.20;91.90
36450;DHT22;22475;51.390;7.180;2023-02-17T03:56:09;12.20;91.90
36450;DHT22;22475;51.390;7.180;2023-02-17T03:58:36;12.20;91.90
36450;DHT22;22475;51.390;7.180;2023-02-17T04:01:04;12.20;91.90
36450;DHT22;22475;51.390;7.180;2023-02-17T04:03:31;12.20;91.90
36450;DHT22;22475;51.390;7.180;2023-02-17T04:05:58;12.20;91.90
36450;DHT22;22475;51.390;7.180;2023-02-17T04:08:28;12.20;91.90
36450;DHT22;22475;51.390;7.180;2023-02-17T04:10:58;12.20;92.00
36450;DHT22;22475;51.390;7.180;2023-02-17T04:13:25;12.20;92.00
36450;DHT22;22475;51.390;7.180;2023-02-17T04:15:52;12.20;92.00
36450;DHT22;22475;51.390;7.180;2023-02-17T04:18:20;12.20;92.00
36450;DHT22;22475;51.390;7.180;2023-02-17T04:20:47;12.20;92.00
36450;DHT22;22475;51.390;7.180;2023-02-17T04:23:15;12.20;92.00
36450;DHT22;22475;51.390;7.180;2023-02-17T04:25:42;12.20;92.00
36450;DHT22;22475;51.390;7.180;2023-02-17T04:28:11;12.20;92.00
36450;DHT22;22475;51.390;7.180;2023-02-17T04:30:38;12.20;92.40
36450;DHT22;22475;51.390;7.180;2023-02-17T04:33:05;12.20;92.00
36450;DHT22;22475;51.390;7.180;2023-02-17T04:35:32;12.20;92.00
36450;DHT22;22475;51.390;7.180;2023-02-17T04:37:59;12.20;92.10
36450;DHT22;22475;51.390;7.180;2023-02-17T04:40:25;12.20;92.10
36450;DHT22;22475;51.390;7.180;2023-02-17T04:42:52;12.20;92.10
36450;DHT22;22475;51.390;7.180;2023-02-17T04:45:21;12.20;92.10
36450;DHT22;22475;51.390;7.180;2023-02-17T04:47:48;12.20;92.00
36450;DHT22;22475;51.390;7.180;2023-02-17T04:50:15;12.20;92.00
36450;DHT22;22475;51.390;7.180;2023-02-17T04:52:42;12.20;92.00
36450;DHT22;22475;51.390;7.180;2023-02-17T04:55:09;12.20;92.00
36450;DHT22;22475;51.390;7.180;2023-02-17T04:57:36;12.20;92.00
36450;DHT22;22475;51.390;7.180;2023-02-17T05:00:03;12.20;92.00
36450;DHT22;22475;51.390;7.180;2023-02-17T05:02:31;12.20;92.00
36450;DHT22;22475;51.390;7.180;2023-02-17T05:04:58;12.20;92.00
36450;DHT22;22475;51.390;7.180;2023-02-17T05:07:25;12.20;92.00
36450;DHT22;22475;51.390;7.180;2023-02-17T05:09:52;12.30;92.10
36450;DHT22;22475;51.390;7.180;2023-02-17T05:12:19;12.30;92.00
36450;DHT22;22475;51.390;7.180;2023-02-17T05:14:45;12.20;92.00
36450;DHT22;22475;51.390;7.180;2023-02-17T05:17:12;12.20;92.00
36450;DHT22;22475;51.390;7.180;2023-02-17T05:19:40;12.20;92.00
36450;DHT22;22475;51.390;7.180;2023-02-17T05:22:07;12.30;92.10
36450;DHT22;22475;51.390;7.180;2023-02-17T05:24:34;12.20;92.10
36450;DHT22;22475;51.390;7.180;2023-02-17T05:27:00;12.20;92.10
36450;DHT22;22475;51.390;7.180;2023-02-17T05:29:27;12.20;92.10
36450;DHT22;22475;51.390;7.180;2023-02-17T05:31:54;12.30;92.10
36450;DHT22;22475;51.390;7.180;2023-02-17T05:34:20;12.30;92.10
36450;DHT22;22475;51.390;7.180;2023-02-17T05:36:48;12.20;92.10
36450;DHT22;22475;51.390;7.180;2023-02-17T05:39:15;12.30;92.20
36450;DHT22;22475;51.390;7.180;2023-02-17T05:41:42;12.30;92.20
36450;DHT22;22475;51.390;7.180;2023-02-17T05:44:09;12.30;92.20
36450;DHT22;22475;51.390;7.180;2023-02-17T05:46:35;12.30;92.20
36450;DHT22;22475;51.390;7.180;2023-02-17T05:49:02;12.30;92.20
36450;DHT22;22475;51.390;7.180;2023-02-17T05:51:29;12.30;92.20
36450;DHT22;22475;51.390;7.180;2023-02-17T05:53:57;12.30;92.20
36450;DHT22;22475;51.390;7.180;2023-02-17T05:56:24;12.30;92.20
36450;DHT22;22475;51.390;7.180;2023-02-17T05:58:50;12.30;92.20
36450;DHT22;22475;51.390;7.180;2023-02-17T06:01:17;12.30;92.20
36450;DHT22;22475;51.390;7.180;2023-02-17T06:03:44;12.20;92.10
36450;DHT22;22475;51.390;7.180;2023-02-17T06:06:11;12.20;92.20
36450;DHT22;22475;51.390;7.180;2023-02-17T06:08:39;12.30;92.20
36450;DHT22;22475;51.390;7.180;2023-02-17T06:11:07;12.30;92.20
36450;DHT22;22475;51.390;7.180;2023-02-17T06:13:34;12.30;92.20
36450;DHT22;22475;51.390;7.180;2023-02-17T06:16:00;12.30;92.20
36450;DHT22;22475;51.390;7.180;2023-02-17T06:18:27;12.30;92.10
36450;DHT22;22475;51.390;7.180;2023-02-17T06:20:54;12.30;92.20
36450;DHT22;22475;51.390;7.180;2023-02-17T06:23:22;12.30;92.20
36450;DHT22;22475;51.390;7.180;2023-02-17T06:25:48;12.30;92.20
36450;DHT22;22475;51.390;7.180;2023-02-17T06:28:16;12.30;92.20
36450;DHT22;22475;51.390;7.180;2023-02-17T06:30:43;12.30;92.20
36450;DHT22;22475;51.390;7.180;2023-02-17T06:33:10;12.30;92.10
36450;DHT22;22475;51.390;7.180;2023-02-17T06:35:37;12.30;92.10
36450;DHT22;22475;51.390;7.180;2023-02-17T06:38:03;12.30;92.10
36450;DHT22;22475;51.390;7.180;2023-02-17T06:40:30;12.30;92.10
36450;DHT22;22475;51.390;7.180;2023-02-17T06:42:57;12.30;92.10
36450;DHT22;22475;51.390;7.180;2023-02-17T06:45:25;12.30;92.10
36450;DHT22;22475;51.390;7.180;2023-02-17T06:47:52;12.30;92.10
36450;DHT22;22475;51.390;7.180;2023-02-17T06:50:19;12.30;92.20
36450;DHT22;22475;51.390;7.180;2023-02-17T06:52:46;12.30;92.20
36450;DHT22;22475;51.390;7.180;2023-02-17T06:55:12;12.30;92.10
36450;DHT22;22475;51.390;7.180;2023-02-17T06:57:39;12.30;92.20
36450;DHT22;22475;51.390;7.180;2023-02-17T07:00:07;12.30;92.10
36450;DHT22;22475;51.390;7.180;2023-02-17T07:02:37;12.30;92.10
36450;DHT22;22475;51.390;7.180;2023-02-17T07:05:04;12.30;92.10
36450;DHT22;22475;51.390;7.180;2023-02-17T07:07:31;12.30;92.10
36450;DHT22;22475;51.390;7.180;2023-02-17T07:09:58;12.30;92.10
36450;DHT22;22475;51.390;7.180;2023-02-17T07:12:26;12.30;92.50
36450;DHT22;22475;51.390;7.180;2023-02-17T07:14:53;12.30;92.10
36450;DHT22;22475;51.390;7.180;2023-02-17T07:17:20;12.30;92.10
36450;DHT22;22475;51.390;7.180;2023-02-17T07:19:48;12.30;92.10
36450;DHT22;22475;51.390;7.180;2023-02-17T07:22:15;12.30;92.10
36450;DHT22;22475;51.390;7.180;2023-02-17T07:24:42;12.30;92.10
36450;DHT22;22475;51.390;7.180;2023-02-17T07:27:09;12.30;92.10
36450;DHT22;22475;51.390;7.180;2023-02-17T07:29:36;12.30;92.20
36450;DHT22;22475;51.390;7.180;2023-02-17T07:32:03;12.30;92.30
36450;DHT22;22475;51.390;7.180;2023-02-17T07:34:30;12.30;92.40
36450;DHT22;22475;51.390;7.180;2023-02-17T07:36:58;12.30;92.40
36450;DHT22;22475;51.390;7.180;2023-02-17T07:39:24;12.30;92.50
36450;DHT22;22475;51.390;7.180;2023-02-17T07:41:51;12.30;92.40
36450;DHT22;22475;51.390;7.180;2023-02-17T07:44:18;12.30;92.40
36450;DHT22;22475;51.390;7.180;2023-02-17T07:46:45;12.30;92.40
36450;DHT22;22475;51.390;7.180;2023-02-17T07:49:11;12.30;92.40
36450;DHT22;22475;51.390;7.180;2023-02-17T07:51:39;12.30;92.40
36450;DHT22;22475;51.390;7.180;2023-02-17T07:54:07;12.30;92.40
36450;DHT22;22475;51.390;7.180;2023-02-17T07:56:33;12.40;92.40
36450;DHT22;22475;51.390;7.180;2023-02-17T07:59:00;12.30;92.40
36450;DHT22;22475;51.390;7.180;2023-02-17T08:01:27;12.30;92.50
36450;DHT22;22475;51.390;7.180;2023-02-17T08:03:55;12.40;92.40
36450;DHT22;22475;51.390;7.180;2023-02-17T08:06:24;12.40;92.40
36450;DHT22;22475;51.390;7.180;2023-02-17T08:08:52;12.30;92.40
36450;DHT22;22475;51.390;7.180;2023-02-17T08:11:39;12.40;92.40
36450;DHT22;22475;51.390;7.180;2023-02-17T08:14:27;12.30;92.40
36450;DHT22;22475;51.390;7.180;2023-02-17T08:16:54;12.30;92.40
36450;DHT22;22475;51.390;7.180;2023-02-17T08:19:21;12.30;92.50
36450;DHT22;22475;51.390;7.180;2023-02-17T08:21:48;12.40;92.50
36450;DHT22;22475;51.390;7.180;2023-02-17T08:24:15;12.40;92.60
36450;DHT22;22475;51.390;7.180;2023-02-17T08:26:45;12.40;92.60
36450;DHT22;22475;51.390;7.180;2023-02-17T08:29:12;12.30;92.60
36450;DHT22;22475;51.390;7.180;2023-02-17T08:31:40;12.40;92.70
36450;DHT22;22475;51.390;7.180;2023-02-17T08:34:09;12.40;92.70
36450;DHT22;22475;51.390;7.180;2023-02-17T08:36:36;12.40;92.70
36450;DHT22;22475;51.390;7.180;2023-02-17T08:39:04;12.40;92.80
36450;DHT22;22475;51.390;7.180;2023-02-17T08:41:33;12.40;92.80
36450;DHT22;22475;51.390;7.180;2023-02-17T08:44:06;12.40;92.80
36450;DHT22;22475;51.390;7.180;2023-02-17T08:46:34;12.40;92.80
36450;DHT22;22475;51.390;7.180;2023-02-17T08:49:01;12.40;93.20
36450;DHT22;22475;51.390;7.180;2023-02-17T08:51:28;12.40;92.80
36450;DHT22;22475;51.390;7.180;2023-02-17T08:53:58;12.40;92.80
36450;DHT22;22475;51.390;7.180;2023-02-17T08:56:26;12.40;92.80
36450;DHT22;22475;51.390;7.180;2023-02-17T08:58:53;12.40;92.90
36450;DHT22;22475;51.390;7.180;2023-02-17T09:01:22;12.40;92.90
36450;DHT22;22475;51.390;7.180;2023-02-17T09:03:49;12.40;92.80
36450;DHT22;22475;51.390;7.180;2023-02-17T09:06:17;12.40;92.80
36450;DHT22;22475;51.390;7.180;2023-02-17T09:08:44;12.40;92.90
36450;DHT22;22475;51.390;7.180;2023-02-17T09:11:11;12.40;92.80
36450;DHT22;22475;51.390;7.180;2023-02-17T09:13:40;12.40;92.80
36450;DHT22;22475;51.390;7.180;2023-02-17T09:16:07;12.40;92.80
36450;DHT22;22475;51.390;7.180;2023-02-17T09:18:35;12.40;92.80
36450;DHT22;22475;51.390;7.180;2023-02-17T09:21:05;12.40;92.80
36450;DHT22;22475;51.390;7.180;2023-02-17T09:23:31;12.40;93.10
36450;DHT22;22475;51.390;7.180;2023-02-17T09:26:02;12.40;92.90
36450;DHT22;22475;51.390;7.180;2023-02-17T09:28:30;12.40;92.90
36450;DHT22;22475;51.390;7.180;2023-02-17T09:30:58;12.40;92.90
36450;DHT22;22475;51.390;7.180;2023-02-17T09:33:24;12.40;92.90
36450;DHT22;22475;51.390;7.180;2023-02-17T09:35:52;12.40;93.00
36450;DHT22;22475;51.390;7.180;2023-02-17T09:38:19;12.40;93.00
36450;DHT22;22475;51.390;7.180;2023-02-17T09:40:48;12.40;93.10
36450;DHT22;22475;51.390;7.180;2023-02-17T09:43:18;12.40;93.10
36450;DHT22;22475;51.390;7.180;2023-02-17T09:45:51;12.40;93.10
36450;DHT22;22475;51.390;7.180;2023-02-17T09:48:21;12.40;93.20
36450;DHT22;22475;51.390;7.180;2023-02-17T09:50:55;12.40;93.20
36450;DHT22;22475;51.390;7.180;2023-02-17T09:53:27;12.40;93.20
36450;DHT22;22475;51.390;7.180;2023-02-17T09:55:58;12.40;93.20
36450;DHT22;22475;51.390;7.180;2023-02-17T09:58:31;12.40;93.20
36450;DHT22;22475;51.390;7.180;2023-02-17T10:01:02;12.40;93.20
36450;DHT22;22475;51.390;7.180;2023-02-17T10:03:33;12.40;93.20
36450;DHT22;22475;51.390;7.180;2023-02-17T10:06:10;12.40;93.30
36450;DHT22;22475;51.390;7.180;2023-02-17T10:08:44;12.40;93.30
36450;DHT22;22475;51.390;7.180;2023-02-17T10:11:19;12.40;93.30
36450;DHT22;22475;51.390;7.180;2023-02-17T10:13:48;12.40;93.30
36450;DHT22;22475;51.390;7.180;2023-02-17T10:16:20;12.40;93.30
36450;DHT22;22475;51.390;7.180;2023-02-17T10:18:51;12.40;93.30
36450;DHT22;22475;51.390;7.180;2023-02-17T10:21:26;12.40;93.30
36450;DHT22;22475;51.390;7.180;2023-02-17T10:23:53;12.40;93.30
36450;DHT22;22475;51.390;7.180;2023-02-17T10:26:28;12.40;93.30
36450;DHT22;22475;51.390;7.180;2023-02-17T10:29:03;12.50;93.40
36450;DHT22;22475;51.390;7.180;2023-02-17T10:31:40;12.40;93.30
36450;DHT22;22475;51.390;7.180;2023-02-17T10:34:12;12.40;93.30
36450;DHT22;22475;51.390;7.180;2023-02-17T10:36:47;12.50;93.30
36450;DHT22;22475;51.390;7.180;2023-02-17T10:39:31;12.50;93.40
36450;DHT22;22475;51.390;7.180;2023-02-17T10:42:01;12.40;93.40
36450;DHT22;22475;51.390;7.180;2023-02-17T10:44:30;12.50;93.40
36450;DHT22;22475;51.390;7.180;2023-02-17T10:46:59;12.40;93.40
36450;DHT22;22475;51.390;7.180;2023-02-17T10:49:29;12.40;93.40
36450;DHT22;22475;51.390;7.180;2023-02-17T10:51:59;12.40;93.40
36450;DHT22;22475;51.390;7.180;2023-02-17T10:54:31;12.40;93.40
36450;DHT22;22475;51.390;7.180;2023-02-17T10:57:02;12.50;93.30
36450;DHT22;22475;51.390;7.180;2023-02-17T10:59:34;12.40;93.30
36450;DHT22;22475;51.390;7.180;2023-02-17T11:02:14;12.50;93.40
36450;DHT22;22475;51.390;7.180;2023-02-17T11:04:42;12.50;93.40
36450;DHT22;22475;51.390;7.180;2023-02-17T11:07:12;12.40;93.40
36450;DHT22;22475;51.390;7.180;2023-02-17T11:09:46;12.40;93.40
36450;DHT22;22475;51.390;7.180;2023-02-17T11:12:17;12.40;93.40
36450;DHT22;22475;51.390;7.180;2023-02-17T11:14:48;12.50;93.40
36450;DHT22;22475;51.390;7.180;2023-02-17T11:17:19;12.40;93.40
36450;DHT22;22475;51.390;7.180;2023-02-17T11:19:57;12.50;93.50
36450;DHT22;22475;51.390;7.180;2023-02-17T11:22:35;12.50;93.40
36450;DHT22;22475;51.390;7.180;2023-02-17T11:25:05;12.50;93.50
36450;DHT22;22475;51.390;7.180;2023-02-17T11:27:33;12.40;93.40
36450;DHT22;22475;51.390;7.180;2023-02-17T11:30:12;12.50;93.30
36450;DHT22;22475;51.390;7.180;2023-02-17T11:32:40;12.40;93.30
36450;DHT22;22475;51.390;7.180;2023-02-17T11:35:22;12.40;93.30
36450;DHT22;22475;51.390;7.180;2023-02-17T11:37:52;12.50;93.40
36450;DHT22;22475;51.390;7.180;2023-02-17T11:40:28;12.50;93.40
36450;DHT22;22475;51.390;7.180;2023-02-17T11:42:57;12.50;93.40
36450;DHT22;22475;51.390;7.180;2023-02-17T11:45:26;12.50;93.40
36450;DHT22;22475;51.390;7.180;2023-02-17T11:48:01;12.50;93.50
36450;DHT22;22475;51.390;7.180;2023-02-17T11:50:34;12.50;93.50
36450;DHT22;22475;51.390;7.180;2023-02-17T11:53:18;12.50;93.50
36450;DHT22;22475;51.390;7.180;2023-02-17T11:55:53;12.50;93.50
36450;DHT22;22475;51.390;7.180;2023-02-17T11:58:31;12.50;93.50
36450;DHT22;22475;51.390;7.180;2023-02-17T12:01:03;12.50;93.50
36450;DHT22;22475;51.390;7.180;2023-02-17T12:03:46;12.50;93.50
36450;DHT22;22475;51.390;7.180;2023-02-17T12:06:20;12.50;93.50
36450;DHT22;22475;51.390;7.180;2023-02-17T12:09:02;12.50;93.50
36450;DHT22;22475;51.390;7.180;2023-02-17T12:11:36;12.50;93.50
36450;DHT22;22475;51.390;7.180;2023-02-17T12:14:18;12.50;93.50
36450;DHT22;22475;51.390;7.180;2023-02-17T12:16:52;12.50;93.60
36450;DHT22;22475;51.390;7.180;2023-02-17T12:19:40;12.50;93.50
36450;DHT22;22475;51.390;7.180;2023-02-17T12:22:17;12.50;93.60
36450;DHT22;22475;51.390;7.180;2023-02-17T12:24:57;12.50;93.50
36450;DHT22;22475;51.390;7.180;2023-02-17T12:27:41;12.50;93.50
36450;DHT22;22475;51.390;7.180;2023-02-17T12:30:19;12.50;93.50
36450;DHT22;22475;51.390;7.180;2023-02-17T12:32:57;12.50;93.50
36450;DHT22;22475;51.390;7.180;2023-02-17T12:35:40;12.50;93.50
36450;DHT22;22475;51.390;7.180;2023-02-17T12:38:12;12.50;93.50
36450;DHT22;22475;51.390;7.180;2023-02-17T12:40:44;12.60;93.50
36450;DHT22;22475;51.390;7.180;2023-02-17T12:43:19;12.60;93.50
36450;DHT22;22475;51.390;7.180;2023-02-17T12:45:48;12.60;93.50
36450;DHT22;22475;51.390;7.180;2023-02-17T12:48:23;12.50;93.50
36450;DHT22;22475;51.390;7.180;2023-02-17T12:50:55;12.60;93.60
36450;DHT22;22475;51.390;7.180;2023-02-17T12:56:38;12.60;93.60
36450;DHT22;22475;51.390;7.180;2023-02-17T12:59:11;12.60;93.50
36450;DHT22;22475;51.390;7.180;2023-02-17T13:01:48;12.60;93.50
36450;DHT22;22475;51.390;7.180;2023-02-17T13:04:17;12.50;93.50
36450;DHT22;22475;51.390;7.180;2023-02-17T13:06:50;12.60;93.50
36450;DHT22;22475;51.390;7.180;2023-02-17T13:09:26;12.60;93.60
36450;DHT22;22475;51.390;7.180;2023-02-17T13:12:09;12.60;93.60
36450;DHT22;22475;51.390;7.180;2023-02-17T13:14:41;12.60;93.60
36450;DHT22;22475;51.390;7.180;2023-02-17T13:17:25;12.60;93.60
36450;DHT22;22475;51.390;7.180;2023-02-17T13:23:33;12.60;93.60
36450;DHT22;22475;51.390;7.180;2023-02-17T13:26:12;12.60;93.60
36450;DHT22;22475;51.390;7.180;2023-02-17T13:28:42;12.60;93.60
36450;DHT22;22475;51.390;7.180;2023-02-17T13:31:13;12.60;93.60
36450;DHT22;22475;51.390;7.180;2023-02-17T13:33:51;12.60;93.60
36450;DHT22;22475;51.390;7.180;2023-02-17T13:36:21;12.60;93.60
36450;DHT22;22475;51.390;7.180;2023-02-17T13:38:54;12.60;93.60
36450;DHT22;22475;51.390;7.180;2023-02-17T13:41:21;12.60;93.60
36450;DHT22;22475;51.390;7.180;2023-02-17T13:43:51;12.60;93.60
36450;DHT22;22475;51.390;7.180;2023-02-17T13:46:20;12.60;93.60
36450;DHT22;22475;51.390;7.180;2023-02-17T13:48:58;12.60;93.60
36450;DHT22;22475;51.390;7.180;2023-02-17T13:51:27;12.60;93.60
36450;DHT22;22475;51.390;7.180;2023-02-17T13:53:54;12.60;93.60
36450;DHT22;22475;51.390;7.180;2023-02-17T13:56:26;12.60;93.60
36450;DHT22;22475;51.390;7.180;2023-02-17T13:59:05;12.60;93.60
36450;DHT22;22475;51.390;7.180;2023-02-17T14:01:35;12.60;93.60
36450;DHT22;22475;51.390;7.180;2023-02-17T14:04:02;12.60;93.60
36450;DHT22;22475;51.390;7.180;2023-02-17T14:06:34;12.60;93.60
36450;DHT22;22475;51.390;7.180;2023-02-17T14:09:11;12.70;93.60
36450;DHT22;22475;51.390;7.180;2023-02-17T14:11:38;12.60;93.60
36450;DHT22;22475;51.390;7.180;2023-02-17T14:14:07;12.70;93.60
36450;DHT22;22475;51.390;7.180;2023-02-17T14:16:37;12.70;93.60
36450;DHT22;22475;51.390;7.180;2023-02-17T14:19:06;12.60;93.60
36450;DHT22;22475;51.390;7.180;2023-02-17T14:21:35;12.70;93.60
36450;DHT22;22475;51.390;7.180;2023-02-17T14:24:02;12.60;93.60
36450;DHT22;22475;51.390;7.180;2023-02-17T14:26:33;12.70;93.60
36450;DHT22;22475;51.390;7.180;2023-02-17T14:29:02;12.70;93.60
36450;DHT22;22475;51.390;7.180;2023-02-17T14:31:37;12.70;93.60
36450;DHT22;22475;51.390;7.180;2023-02-17T14:34:05;12.70;93.60
36450;DHT22;22475;51.390;7.180;2023-02-17T14:36:34;12.70;93.60
36450;DHT22;22475;51.390;7.180;2023-02-17T14:39:03;12.70;93.60
36450;DHT22;22475;51.390;7.180;2023-02-17T14:41:30;12.70;93.60
36450;DHT22;22475;51.390;7.180;2023-02-17T14:43:57;12.70;93.60
36450;DHT22;22475;51.390;7.180;2023-02-17T14:46:25;12.70;93.60
36450;DHT22;22475;51.390;7.180;2023-02-17T14:48:53;12.70;93.60
36450;DHT22;22475;51.390;7.180;2023-02-17T14:51:21;12.70;93.60
36450;DHT22;22475;51.390;7.180;2023-02-17T14:53:49;12.70;93.60
36450;DHT22;22475;51.390;7.180;2023-02-17T14:56:20;12.70;93.60
36450;DHT22;22475;51.390;7.180;2023-02-17T14:58:47;12.70;93.60
36450;DHT22;22475;51.390;7.180;2023-02-17T15:01:16;12.70;93.60
36450;DHT22;22475;51.390;7.180;2023-02-17T15:03:43;12.70;93.60
36450;DHT22;22475;51.390;7.180;2023-02-17T15:06:14;12.70;93.60
36450;DHT22;22475;51.390;7.180;2023-02-17T15:08:42;12.70;93.60
36450;DHT22;22475;51.390;7.180;2023-02-17T15:11:16;12.70;94.00
36450;DHT22;22475;51.390;7.180;2023-02-17T15:13:43;12.70;93.70
36450;DHT22;22475;51.390;7.180;2023-02-17T15:16:10;12.70;93.70
36450;DHT22;22475;51.390;7.180;2023-02-17T15:18:37;12.70;93.70
36450;DHT22;22475;51.390;7.180;2023-02-17T15:21:18;12.70;93.70
36450;DHT22;22475;51.390;7.180;2023-02-17T15:23:48;12.70;93.80
36450;DHT22;22475;51.390;7.180;2023-02-17T15:26:14;12.70;93.80
36450;DHT22;22475;51.390;7.180;2023-02-17T15:28:41;12.80;93.90
36450;DHT22;22475;51.390;7.180;2023-02-17T15:31:10;12.80;93.90
36450;DHT22;22475;51.390;7.180;2023-02-17T15:33:37;12.80;94.00
36450;DHT22;22475;51.390;7.180;2023-02-17T15:36:05;12.80;94.00
36450;DHT22;22475;51.390;7.180;2023-02-17T15:38:33;12.80;94.00
36450;DHT22;22475;51.390;7.180;2023-02-17T15:40:59;12.80;94.00
36450;DHT22;22475;51.390;7.180;2023-02-17T15:43:32;12.80;94.00
36450;DHT22;22475;51.390;7.180;2023-02-17T15:46:00;12.80;94.00
36450;DHT22;22475;51.390;7.180;2023-02-17T15:48:27;12.80;94.00
36450;DHT22;22475;51.390;7.180;2023-02-17T15:50:56;12.80;94.00
36450;DHT22;22475;51.390;7.180;2023-02-17T15:53:23;12.80;94.10
36450;DHT22;22475;51.390;7.180;2023-02-17T15:55:51;12.80;94.00
36450;DHT22;22475;51.390;7.180;2023-02-17T15:58:19;12.90;94.10